EPPOEPWR

Guest
Details From EPPO - Lawica
To EPWR - Strachowice
Flight Number -
Tags Generated
Created
Modified
Stats Distance 79 nm / 146 km
Max Altitude 0 ft / 0 m
Waypoints 2
Social Downloads 0
Likes 0
Share VATSIM

Download

Looking for another format? Having issues loading an existing format? Contact us
Advertisement - Login to hide

Notes

Generated

Route

EPPO EPWR

ID Type Via Altitude Latitude Longitude Leg Dist Tot Dist Heading (true) Name
O EPPO APT - 0 ft / 0 m 52.42494˚ 16.80609˚ - 0 nm - -
O EPWR APT - 0 ft / 0 m 51.10880˚ 16.86583˚ 79 nm 79 nm 178° / 178° -

Altitude Profile

Advertisement - Login to hide

EPPO

Details ICAO EPPO (POZ)
Name LAWICA
Region Poland
Timezone Europe/Warsaw (UTC+1.0)
Stats Elevation 308 ft / 94 m (AMSL)
Location 52.421566° 16.823549°
Runways 1
Magnetic Variation 4.736° E

METAR

EPPO 161530Z 25006KT 6000 SCT016 BKN020 02/00 Q1006 R10/29//95

Decode

TAF

TAF EPPO 161130Z 1612/1712 26005KT 5000 BR SCT005 BKN015 TEMPO 1612/1712 2500 -SHSN BR BKN006 BKN012CB PROB40 TEMPO 1612/1621 1400 SHRASN BR BKN004 BKN010CB PROB30 TEMPO 1612/1619 OVC001

Decode

Departure Runways

ID Width Length Bearing (true) Bearing (mag) Surface Threshold Offset Overrun Length
11 164 ft / 50 m 8,153 ft / 2,485 m 107.57° 102.83° Asphalt 0 ft / 0 m 0 ft / 0 m
29 164 ft / 50 m 8,153 ft / 2,485 m 287.59° 282.85° Asphalt 0 ft / 0 m 0 ft / 0 m

EPWR

Details ICAO EPWR (WRO)
Name STRACHOWICE
Region Poland
Timezone Europe/Warsaw (UTC+1.0)
Stats Elevation 404 ft / 123 m (AMSL)
Location 51.103882° 16.881892°
Runways 1
Magnetic Variation 4.613° E

METAR

EPWR 161530Z 24004KT 9999 FEW027 00/M02 Q1008

Decode

TAF

TAF TAF EPWR 161130Z 1612/1712 26005KT 6000 SCT005 BKN015 TEMPO 1612/1615 2500 BR BKN004 TEMPO 1615/1712 2000 -SHSN BR BKN006 BKN013CB PROB40 TEMPO 1615/1702 1100 SHRASN BR BKN003 BKN010CB

Decode

Destination Runways

ID Width Length Bearing (true) Bearing (mag) Surface Threshold Offset Overrun Length
12 197 ft / 60 m 8,192 ft / 2,497 m 115.99° 111.38° Concrete 0 ft / 0 m 0 ft / 0 m
30 197 ft / 60 m 8,192 ft / 2,497 m 296.01° 291.40° Concrete 0 ft / 0 m 0 ft / 0 m

Approach Navaids

Runway Type Ident Frequency Range Bearing (true) Bearing (mag) Slope Elevation
30 Localiser WRO 110.30 MHz 18 nm / 33 km 295.98° 291.37° - 404 ft / 123 m (AMSL)
30 Glidescope WRO 110.30 MHz 10 nm / 19 km 296.00° 291.39° 3.00° 404 ft / 123 m (AMSL)
30 DME WRO 110.30 MHz 18 nm / 33 km - - - 394 ft / 120 m (AMSL)

Popular Alternatives